createdAt,value
2022-11-09T00:00:07.798Z,95284
2022-11-09T00:01:09.748Z,95284.4
2022-11-09T00:02:11.962Z,95287.5
2022-11-09T00:03:13.876Z,95285.3
2022-11-09T00:04:16.467Z,95289.1
2022-11-09T00:05:18.900Z,95284.8
2022-11-09T00:06:21.369Z,95290.4
2022-11-09T00:07:23.927Z,95289.9
2022-11-09T00:08:26.403Z,95287.9
2022-11-09T00:09:29.096Z,95294.1
2022-11-09T00:10:31.374Z,95295.1
2022-11-09T00:11:33.577Z,95289.5
2022-11-09T00:12:35.759Z,95292.2
2022-11-09T00:13:37.963Z,95291.3
2022-11-09T00:14:40.155Z,95289
2022-11-09T00:15:42.388Z,95285.7
2022-11-09T00:16:44.860Z,95286.2
2022-11-09T00:17:47.066Z,95287.3
2022-11-09T00:18:48.990Z,95286.4
2022-11-09T00:19:51.519Z,95281.6
2022-11-09T00:20:54.016Z,95278.5
2022-11-09T00:21:56.218Z,95281.2
2022-11-09T00:22:57.864Z,95285.1
2022-11-09T00:24:00.093Z,95281.7
2022-11-09T00:25:02.291Z,95276.6
2022-11-09T00:26:04.513Z,95282.2
2022-11-09T00:27:06.991Z,95277.1
2022-11-09T00:28:08.921Z,95276.5
2022-11-09T00:29:10.549Z,95273.6
2022-11-09T00:30:12.196Z,95279.9
2022-11-09T00:31:14.132Z,95277
2022-11-09T00:32:16.613Z,95280.4
2022-11-09T00:33:20.744Z,95278.7
2022-11-09T00:34:23.919Z,95281.3
2022-11-09T00:35:26.495Z,95285.4
2022-11-09T00:36:28.996Z,95283.6
2022-11-09T00:37:31.256Z,95280.7
2022-11-09T00:38:33.397Z,95273.8
2022-11-09T00:39:35.324Z,95273.1
2022-11-09T00:40:37.604Z,95274.7
2022-11-09T00:41:39.799Z,95271.3
2022-11-09T00:42:41.717Z,95265.9
2022-11-09T00:43:44.104Z,95268.1
2022-11-09T00:44:45.836Z,95270.5
2022-11-09T00:45:47.770Z,95267.1
2022-11-09T00:46:50.244Z,95270.4
2022-11-09T00:47:52.717Z,95269.2
2022-11-09T00:48:54.639Z,95268.7
2022-11-09T00:49:56.868Z,95267.4
2022-11-09T00:50:59.480Z,95268
2022-11-09T00:52:01.700Z,95270.8
2022-11-09T00:53:03.604Z,95270.7
2022-11-09T00:54:05.815Z,95270.7
2022-11-09T00:55:08.317Z,95274.1
2022-11-09T00:56:10.808Z,95271.2
2022-11-09T00:57:12.459Z,95271.5
2022-11-09T00:58:14.932Z,95266.8
2022-11-09T00:59:16.865Z,95266.8
2022-11-09T01:00:19.066Z,95269.5
2022-11-09T01:01:21.936Z,95265.4
2022-11-09T01:02:23.960Z,95265
2022-11-09T01:03:26.447Z,95267.6
2022-11-09T01:04:28.650Z,95270
2022-11-09T01:05:31.123Z,95269
2022-11-09T01:07:37.824Z,95269.9
2022-11-09T01:08:40.394Z,95272.6
2022-11-09T01:09:42.611Z,95269.2
2022-11-09T01:10:44.805Z,95268.9
2022-11-09T01:11:47.001Z,95267.8
2022-11-09T01:12:49.199Z,95272
2022-11-09T01:13:51.669Z,95270
2022-11-09T01:14:54.176Z,95270.5
2022-11-09T01:15:56.075Z,95270.2
2022-11-09T01:16:58.549Z,95272.7
2022-11-09T01:18:00.744Z,95270.9
2022-11-09T01:19:02.890Z,95273.5
2022-11-09T01:20:05.358Z,95268.8
2022-11-09T01:21:07.293Z,95268.4
2022-11-09T01:22:09.508Z,95263.1
2022-11-09T01:23:12.066Z,95258.9
2022-11-09T01:24:14.569Z,95266.4
2022-11-09T01:25:16.763Z,95264.2
2022-11-09T01:26:19.230Z,95262.8
2022-11-09T01:27:21.711Z,95262
2022-11-09T01:28:23.904Z,95261.6
2022-11-09T01:29:26.115Z,95261.9
2022-11-09T01:30:28.343Z,95259.3
2022-11-09T01:31:30.270Z,95256.9
2022-11-09T01:32:32.461Z,95259.5
2022-11-09T01:33:34.661Z,95261.9
2022-11-09T01:34:37.126Z,95264.1
2022-11-09T01:35:39.610Z,95268.5
2022-11-09T01:36:41.799Z,95265
2022-11-09T01:37:44.297Z,95264.8
2022-11-09T01:38:46.896Z,95269
2022-11-09T01:39:49.405Z,95261.1
2022-11-09T01:40:51.576Z,95257.5
2022-11-09T01:41:53.807Z,95264.4
2022-11-09T01:42:56.280Z,95262.8
2022-11-09T01:43:58.709Z,95259.6
2022-11-09T01:45:00.898Z,95259.7
2022-11-09T01:46:03.108Z,95258.9
2022-11-09T01:47:05.581Z,95262.3
2022-11-09T01:48:07.784Z,95262.8
2022-11-09T01:49:09.961Z,95261.7
2022-11-09T01:50:12.444Z,95263.4
2022-11-09T01:51:14.941Z,95261
2022-11-09T01:52:17.416Z,95258.9
2022-11-09T01:53:21.133Z,95259.9
2022-11-09T01:54:24.365Z,95255.9
2022-11-09T01:55:26.857Z,95259
2022-11-09T01:56:29.330Z,95256.8
2022-11-09T01:57:31.506Z,95258.6
2022-11-09T01:58:33.714Z,95257.9
2022-11-09T01:59:35.925Z,95259.4
2022-11-09T02:00:38.415Z,95262.5
2022-11-09T02:01:41.272Z,95255
2022-11-09T02:02:43.560Z,95253.8
2022-11-09T02:03:46.058Z,95254.5
2022-11-09T02:04:48.546Z,95257.8
2022-11-09T02:05:50.747Z,95256.6
2022-11-09T02:06:53.288Z,95246.5
2022-11-09T02:07:55.072Z,95251.4
2022-11-09T02:08:57.315Z,95254.6
2022-11-09T02:09:59.641Z,95259.5
2022-11-09T02:11:02.165Z,95251.9
2022-11-09T02:12:04.875Z,95251.9
2022-11-09T02:13:07.070Z,95252
2022-11-09T02:14:09.545Z,95252
2022-11-09T02:15:11.738Z,95254.4
2022-11-09T02:16:13.932Z,95253.7
2022-11-09T02:17:16.126Z,95255.9
2022-11-09T02:18:18.318Z,95253.3
2022-11-09T02:19:20.795Z,95253.1
2022-11-09T02:20:23.276Z,95255.3
2022-11-09T02:21:25.477Z,95251.5
2022-11-09T02:22:27.967Z,95249.6
2022-11-09T02:23:30.186Z,95246.8
2022-11-09T02:24:32.677Z,95252.4
2022-11-09T02:25:35.212Z,95251.7
2022-11-09T02:26:37.434Z,95253.5
2022-11-09T02:27:39.623Z,95254.1
2022-11-09T02:28:41.553Z,95247.8
2022-11-09T02:29:43.725Z,95250.6
2022-11-09T02:30:45.663Z,95250.6
2022-11-09T02:31:48.128Z,95248.1
2022-11-09T02:32:50.334Z,95250
2022-11-09T02:33:52.798Z,95243.6
2022-11-09T02:34:54.170Z,95245.5
2022-11-09T02:35:56.636Z,95248.8
2022-11-09T02:36:58.830Z,95244.5
2022-11-09T02:38:01.305Z,95243.7
2022-11-09T02:39:03.509Z,95245.8
2022-11-09T02:40:06.026Z,95249
2022-11-09T02:41:08.560Z,95244.1
2022-11-09T02:43:22.153Z,95243.8
2022-11-09T02:44:25.159Z,95244.6
2022-11-09T02:45:27.086Z,95247.4
2022-11-09T02:46:29.289Z,95245.7
2022-11-09T02:47:31.761Z,95243.4
2022-11-09T02:48:34.238Z,95241.5
2022-11-09T02:49:36.706Z,95242
2022-11-09T02:50:39.187Z,95248.3
2022-11-09T02:51:41.654Z,95249.3
2022-11-09T02:52:44.125Z,95248.1
2022-11-09T02:53:46.314Z,95247.5
2022-11-09T02:54:48.833Z,95246.3
2022-11-09T02:55:51.335Z,95246.8
2022-11-09T02:56:53.988Z,95241.5
2022-11-09T02:57:56.550Z,95246.5
2022-11-09T02:58:59.038Z,95247.9
2022-11-09T03:00:01.556Z,95247.3
2022-11-09T03:01:04.474Z,95248.3
2022-11-09T03:02:07.125Z,95245.9
2022-11-09T03:03:09.613Z,95244.9
2022-11-09T03:04:12.080Z,95242.9
2022-11-09T03:05:14.314Z,95245.1
2022-11-09T03:06:16.534Z,95243.3
2022-11-09T03:07:19.503Z,95243.5
2022-11-09T03:08:21.801Z,95235.8
2022-11-09T03:09:24.281Z,95236.9
2022-11-09T03:10:26.191Z,95233.5
2022-11-09T03:11:28.694Z,95235.8
2022-11-09T03:12:31.351Z,95236.6
2022-11-09T03:13:33.589Z,95235.3
2022-11-09T03:14:36.052Z,95241.5
2022-11-09T03:15:38.263Z,95243.2
2022-11-09T03:16:40.449Z,95246.9
2022-11-09T03:17:42.923Z,95246.9
2022-11-09T03:18:45.411Z,95246.5
2022-11-09T03:19:47.622Z,95246.9
2022-11-09T03:20:49.535Z,95241.6
2022-11-09T03:21:51.740Z,95244.2
2022-11-09T03:22:54.209Z,95241.6
2022-11-09T03:23:56.404Z,95239
2022-11-09T03:24:58.578Z,95244.1
2022-11-09T03:26:01.069Z,95249.7
2022-11-09T03:27:03.559Z,95249.2
2022-11-09T03:28:05.831Z,95250.9
2022-11-09T03:29:08.313Z,95242.9
2022-11-09T03:30:10.519Z,95244.3
2022-11-09T03:31:12.688Z,95242.9
2022-11-09T03:32:14.890Z,95247.3
2022-11-09T03:33:18.250Z,95243.8
2022-11-09T03:34:21.354Z,95244.1
2022-11-09T03:35:23.545Z,95247.9
2022-11-09T03:36:25.733Z,95242.8
2022-11-09T03:37:27.993Z,95242.9
2022-11-09T03:38:29.727Z,95241.7
2022-11-09T03:39:31.937Z,95243.7
2022-11-09T03:40:34.128Z,95242.1
2022-11-09T03:41:36.338Z,95239.2
2022-11-09T03:42:38.830Z,95243.6
2022-11-09T03:43:41.606Z,95247.4
2022-11-09T03:44:44.090Z,95238.8
2022-11-09T03:45:46.296Z,95243.6
2022-11-09T03:46:48.762Z,95241.3
2022-11-09T03:47:51.295Z,95242.2
2022-11-09T03:48:53.485Z,95236.6
2022-11-09T03:49:55.953Z,95236.9
2022-11-09T03:50:57.869Z,95236.8
2022-11-09T03:51:59.804Z,95239.4
2022-11-09T03:53:02.110Z,95237.3
2022-11-09T03:54:04.414Z,95245.1
2022-11-09T03:55:06.314Z,95237.7
2022-11-09T03:56:08.790Z,95242.5
2022-11-09T03:57:10.973Z,95240.3
2022-11-09T03:58:13.227Z,95239.2
2022-11-09T03:59:15.941Z,95236.7
2022-11-09T04:00:17.667Z,95238.5
2022-11-09T04:01:20.489Z,95235.4
2022-11-09T04:02:23.090Z,95232.8
2022-11-09T04:03:25.562Z,95236.4
2022-11-09T04:04:28.038Z,95236.9
2022-11-09T04:05:30.506Z,95236.1
2022-11-09T04:06:32.676Z,95234.9
2022-11-09T04:07:34.678Z,95235.3
2022-11-09T04:08:37.169Z,95236.1
2022-11-09T04:09:39.357Z,95236.4
2022-11-09T04:10:41.831Z,95231
2022-11-09T04:11:44.303Z,95231.1
2022-11-09T04:12:46.495Z,95230.8
2022-11-09T04:13:48.438Z,95234.4
2022-11-09T04:14:50.442Z,95231.2
2022-11-09T04:15:52.647Z,95230.4
2022-11-09T04:16:55.127Z,95229
2022-11-09T04:17:57.604Z,95233.4
2022-11-09T04:18:59.850Z,95228.7
2022-11-09T04:20:01.761Z,95228.7
2022-11-09T04:21:03.955Z,95226.5
2022-11-09T04:22:06.421Z,95230.2
2022-11-09T04:23:08.895Z,95233.9
2022-11-09T04:24:11.404Z,95232.3
2022-11-09T04:25:13.310Z,95234.1
2022-11-09T04:26:15.501Z,95230.6
2022-11-09T04:27:17.458Z,95231.9
2022-11-09T04:28:19.714Z,95230.8
2022-11-09T04:29:22.218Z,95231
2022-11-09T04:30:24.595Z,95233.2
2022-11-09T04:32:32.070Z,95234.1
2022-11-09T04:33:34.545Z,95235.4
2022-11-09T04:34:36.755Z,95237.1
2022-11-09T04:35:39.236Z,95243.6
2022-11-09T04:36:41.475Z,95240.9
2022-11-09T04:37:43.940Z,95239.4
2022-11-09T04:38:46.131Z,95242
2022-11-09T04:39:48.684Z,95239.9
2022-11-09T04:40:51.199Z,95239.5
2022-11-09T04:41:53.697Z,95235
2022-11-09T04:42:55.341Z,95237.6
2022-11-09T04:43:58.173Z,95229.5
2022-11-09T04:45:00.727Z,95230.5
2022-11-09T04:46:03.132Z,95232.1
2022-11-09T04:47:05.607Z,95233.7
2022-11-09T04:48:07.547Z,95230.8
2022-11-09T04:49:09.773Z,95233
2022-11-09T04:50:12.264Z,95232.1
2022-11-09T04:51:14.471Z,95232.2
2022-11-09T04:52:16.986Z,95236.6
2022-11-09T04:53:19.503Z,95233.3
2022-11-09T04:54:22.130Z,95235
2022-11-09T04:55:23.782Z,95236.8
2022-11-09T04:56:25.733Z,95239.1
2022-11-09T04:57:28.023Z,95240.2
2022-11-09T04:58:30.217Z,95235.6
2022-11-09T04:59:32.686Z,95238.3
2022-11-09T05:00:34.904Z,95235.7
2022-11-09T05:01:36.880Z,95238.5
2022-11-09T05:02:39.114Z,95235.8
2022-11-09T05:03:41.348Z,95238.1
2022-11-09T05:04:43.684Z,95232.2
2022-11-09T05:06:50.854Z,95237.6
2022-11-09T05:07:52.962Z,95241.5
2022-11-09T05:08:55.445Z,95240.1
2022-11-09T05:09:57.914Z,95239.5
2022-11-09T05:11:00.096Z,95238.1
2022-11-09T05:12:02.570Z,95238.5
2022-11-09T05:13:05.048Z,95238.2
2022-11-09T05:14:06.983Z,95238.9
2022-11-09T05:15:09.448Z,95234.8
2022-11-09T05:16:11.996Z,95240.9
2022-11-09T05:17:14.303Z,95240.8
2022-11-09T05:18:16.795Z,95240.2
2022-11-09T05:19:19.252Z,95241.6
2022-11-09T05:20:21.730Z,95237.3
2022-11-09T05:21:24.198Z,95241.6
2022-11-09T05:22:26.668Z,95242.1
2022-11-09T05:23:28.863Z,95240.6
2022-11-09T05:24:31.338Z,95242
2022-11-09T05:25:33.530Z,95237.7
2022-11-09T05:26:35.761Z,95236.7
2022-11-09T05:27:38.241Z,95240.1
2022-11-09T05:28:40.188Z,95237.4
2022-11-09T05:29:42.377Z,95235.4
2022-11-09T05:30:44.901Z,95232.5
2022-11-09T05:32:52.515Z,95229.7
2022-11-09T05:33:54.730Z,95231.8
2022-11-09T05:34:56.904Z,95232.5
2022-11-09T05:35:59.378Z,95232.8
2022-11-09T05:38:06.572Z,95232.5
2022-11-09T05:39:09.074Z,95237.3
2022-11-09T05:40:11.001Z,95237.1
2022-11-09T05:41:13.210Z,95235.3
2022-11-09T05:42:15.139Z,95234.5
2022-11-09T05:43:18.539Z,95232
2022-11-09T05:44:21.064Z,95228.8
2022-11-09T05:46:27.976Z,95236.1
2022-11-09T05:47:30.185Z,95240
2022-11-09T05:48:32.503Z,95240.3
2022-11-09T05:49:34.996Z,95243.1
2022-11-09T05:50:37.191Z,95246.2
2022-11-09T05:51:39.658Z,95244.7
2022-11-09T05:52:42.138Z,95247
2022-11-09T05:54:49.360Z,95249
2022-11-09T05:55:51.844Z,95246.3
2022-11-09T05:56:53.757Z,95246.8
2022-11-09T05:57:55.673Z,95243.3
2022-11-09T05:58:58.150Z,95248.1
2022-11-09T06:00:00.349Z,95247.5
2022-11-09T06:01:02.822Z,95253.6
2022-11-09T06:02:04.761Z,95255.1
2022-11-09T06:03:07.122Z,95254.5
2022-11-09T06:04:09.391Z,95258.9
2022-11-09T06:05:11.630Z,95260.6
2022-11-09T06:06:13.864Z,95264.3
2022-11-09T06:07:16.605Z,95269.5
2022-11-09T06:08:19.193Z,95262
2022-11-09T06:09:21.377Z,95269.8
2022-11-09T06:10:23.290Z,95272
2022-11-09T06:11:26.211Z,95269.2
2022-11-09T06:12:28.418Z,95267
2022-11-09T06:13:30.632Z,95271.9
2022-11-09T06:14:32.545Z,95274
2022-11-09T06:15:34.736Z,95272.4
2022-11-09T06:16:37.222Z,95275
2022-11-09T06:17:39.148Z,95278.5
2022-11-09T06:18:41.069Z,95289.8
2022-11-09T06:19:43.607Z,95293.8
2022-11-09T06:20:46.110Z,95302.5
2022-11-09T06:21:48.278Z,95304
2022-11-09T06:22:50.492Z,95304.8
2022-11-09T06:23:52.953Z,95307.1
2022-11-09T06:24:55.442Z,95308.8
2022-11-09T06:25:57.914Z,95312.2
2022-11-09T06:27:00.394Z,95318.1
2022-11-09T06:28:02.633Z,95317.2
2022-11-09T06:29:04.841Z,95318
2022-11-09T06:30:07.322Z,95316.1
2022-11-09T06:31:09.522Z,95315.7
2022-11-09T06:32:11.994Z,95319.8
2022-11-09T06:33:14.189Z,95324.1
2022-11-09T06:34:16.389Z,95331.7
2022-11-09T06:35:18.932Z,95343.8
2022-11-09T06:36:21.500Z,95350.9
2022-11-09T06:37:23.965Z,95349.8
2022-11-09T06:38:26.182Z,95357.6
2022-11-09T06:39:27.814Z,95350.3
2022-11-09T06:40:29.747Z,95350.8
2022-11-09T06:41:31.666Z,95350.5
2022-11-09T06:42:34.292Z,95356.3
2022-11-09T06:43:36.283Z,95359.7
2022-11-09T06:44:38.471Z,95365.9
2022-11-09T06:45:40.802Z,95366
2022-11-09T06:46:42.730Z,95369.9
2022-11-09T06:47:44.923Z,95366.9
2022-11-09T06:49:52.136Z,95375.3
2022-11-09T06:50:54.854Z,95385.9
2022-11-09T06:51:57.488Z,95391.7
2022-11-09T06:52:59.693Z,95394.1
2022-11-09T06:54:01.747Z,95400
2022-11-09T06:55:04.241Z,95399.7
2022-11-09T06:56:06.448Z,95402.7
2022-11-09T06:57:08.936Z,95404
2022-11-09T06:58:11.415Z,95401.9
2022-11-09T06:59:13.909Z,95404.5
2022-11-09T07:00:16.133Z,95403.3
2022-11-09T07:01:18.605Z,95402
2022-11-09T07:02:21.291Z,95409.8
2022-11-09T07:03:25.314Z,95409.1
2022-11-09T07:04:28.821Z,95410.6
2022-11-09T07:05:30.835Z,95414
2022-11-09T07:06:33.648Z,95418.2
2022-11-09T07:07:36.262Z,95417
2022-11-09T07:08:38.749Z,95417.5
2022-11-09T07:09:40.988Z,95419.6
2022-11-09T07:10:43.181Z,95419.9
2022-11-09T07:11:45.402Z,95415.6
2022-11-09T07:12:47.902Z,95416.8
2022-11-09T07:14:55.372Z,95423.6
2022-11-09T07:15:57.579Z,95419.2
2022-11-09T07:16:59.514Z,95417.9
2022-11-09T07:18:01.777Z,95413.9
2022-11-09T07:19:04.260Z,95420.1
2022-11-09T07:20:06.457Z,95419.7
2022-11-09T07:22:13.985Z,95416.1
2022-11-09T07:23:16.550Z,95411.4
2022-11-09T07:24:19.322Z,95412.2
2022-11-09T07:25:21.529Z,95419.2
2022-11-09T07:26:23.452Z,95415
2022-11-09T07:28:30.654Z,95415.1
2022-11-09T07:29:33.129Z,95413.6
2022-11-09T07:30:35.030Z,95412.4
2022-11-09T07:31:36.968Z,95408.6
2022-11-09T07:33:44.149Z,95407.1
2022-11-09T07:34:46.072Z,95406.4
2022-11-09T07:35:48.298Z,95406.3
2022-11-09T07:36:50.525Z,95404.5
2022-11-09T07:37:52.757Z,95405.1
2022-11-09T07:38:54.985Z,95401.9
2022-11-09T07:39:56.882Z,95407.4
2022-11-09T07:40:59.382Z,95400.7
2022-11-09T07:42:01.857Z,95405.5
2022-11-09T07:43:04.044Z,95404.3
2022-11-09T07:44:06.508Z,95401
2022-11-09T07:45:09.063Z,95403.3
2022-11-09T07:46:11.784Z,95407.6
2022-11-09T07:48:19.252Z,95403.3
2022-11-09T07:49:21.467Z,95408.2
2022-11-09T07:50:23.662Z,95406.4
2022-11-09T07:51:25.569Z,95405.6
2022-11-09T07:52:27.827Z,95404.9
2022-11-09T07:53:30.418Z,95407.8
2022-11-09T07:54:32.650Z,95405.6
2022-11-09T07:55:34.555Z,95405.9
2022-11-09T07:56:36.754Z,95408.7
2022-11-09T07:57:38.958Z,95409.8
2022-11-09T07:58:41.166Z,95414.3
2022-11-09T07:59:43.654Z,95409.8
2022-11-09T08:00:45.594Z,95409.1
2022-11-09T08:01:47.986Z,95409
2022-11-09T08:02:50.216Z,95407.5
2022-11-09T08:03:52.156Z,95407.5
2022-11-09T08:04:54.631Z,95407.5
2022-11-09T08:05:57.130Z,95414.2
2022-11-09T08:06:59.575Z,95416
2022-11-09T08:08:02.299Z,95420.4
2022-11-09T08:09:04.569Z,95418.2
2022-11-09T08:10:06.825Z,95415.8
2022-11-09T08:11:09.316Z,95418.7
2022-11-09T08:12:11.510Z,95415
2022-11-09T08:13:13.997Z,95419.3
2022-11-09T08:14:15.926Z,95416.3
2022-11-09T08:15:18.143Z,95418.1
2022-11-09T08:16:20.352Z,95417.9
2022-11-09T08:17:22.565Z,95416.9
2022-11-09T08:18:25.600Z,95419.1
2022-11-09T08:19:28.086Z,95420.3
2022-11-09T08:20:30.560Z,95417
2022-11-09T08:21:32.461Z,95417.5
2022-11-09T08:22:34.944Z,95420.4
2022-11-09T08:23:36.866Z,95424.3
2022-11-09T08:24:39.456Z,95421.3
2022-11-09T08:25:41.693Z,95423.3
2022-11-09T08:26:44.174Z,95424.7
2022-11-09T08:27:46.639Z,95428.1
2022-11-09T08:28:48.841Z,95423.9
2022-11-09T08:29:51.036Z,95424.8
2022-11-09T08:30:53.289Z,95425.5
2022-11-09T08:31:55.250Z,95427.5
2022-11-09T08:32:57.750Z,95429.2
2022-11-09T08:34:00.241Z,95429.3
2022-11-09T08:35:02.721Z,95430.3
2022-11-09T08:36:05.192Z,95427.4
2022-11-09T08:37:07.410Z,95430.7
2022-11-09T08:38:09.892Z,95425.6
2022-11-09T08:39:11.858Z,95428.1
2022-11-09T08:40:14.426Z,95429.5
2022-11-09T08:41:16.936Z,95433.8
2022-11-09T08:42:19.430Z,95431.8
2022-11-09T08:43:21.642Z,95437.9
2022-11-09T08:44:23.834Z,95434.6
2022-11-09T08:45:26.091Z,95436
2022-11-09T08:46:28.313Z,95433.9
2022-11-09T08:47:30.513Z,95437
2022-11-09T08:48:32.718Z,95444.3
2022-11-09T08:49:35.195Z,95445.5
2022-11-09T08:50:37.694Z,95453
2022-11-09T08:51:39.891Z,95448.5
2022-11-09T08:52:41.808Z,95450
2022-11-09T08:53:44.038Z,95445.9
2022-11-09T08:54:46.274Z,95443.8
2022-11-09T08:56:53.799Z,95450.1
2022-11-09T08:57:56.304Z,95451.9
2022-11-09T08:58:57.952Z,95452.7
2022-11-09T08:59:59.860Z,95449.8
2022-11-09T09:01:02.069Z,95448.9
2022-11-09T09:02:04.232Z,95447.5
2022-11-09T09:03:06.584Z,95444.4
2022-11-09T09:04:09.098Z,95442.5
2022-11-09T09:05:11.976Z,95444.7
2022-11-09T09:06:14.178Z,95447.3
2022-11-09T09:07:16.366Z,95445.1
2022-11-09T09:08:19.901Z,95449.1
2022-11-09T09:09:22.722Z,95449.1
2022-11-09T09:10:24.956Z,95445.3
2022-11-09T09:11:27.158Z,95442.7
2022-11-09T09:12:29.724Z,95442.2
2022-11-09T09:13:32.221Z,95442.9
2022-11-09T09:14:34.420Z,95449.9
2022-11-09T09:15:36.629Z,95447.7
2022-11-09T09:16:38.843Z,95450.5
2022-11-09T09:17:41.339Z,95455
2022-11-09T09:18:43.838Z,95459.7
2022-11-09T09:20:50.752Z,95462.7
2022-11-09T09:21:52.956Z,95459.3
2022-11-09T09:22:55.170Z,95458.8
2022-11-09T09:23:57.710Z,95458.8
2022-11-09T09:24:59.946Z,95454.3
2022-11-09T09:26:02.469Z,95454.6
2022-11-09T09:27:04.936Z,95453.6
2022-11-09T09:28:07.491Z,95452.9
2022-11-09T09:29:09.447Z,95456.8
2022-11-09T09:30:11.659Z,95456
2022-11-09T09:32:19.148Z,95457.2
2022-11-09T09:33:20.825Z,95456
2022-11-09T09:34:23.354Z,95452.6
2022-11-09T09:35:25.397Z,95455.7
2022-11-09T09:36:27.879Z,95454.7
2022-11-09T09:37:30.399Z,95452.3
2022-11-09T09:38:32.877Z,95456.4
2022-11-09T09:39:35.362Z,95450.5
2022-11-09T09:40:37.840Z,95448
2022-11-09T09:41:39.788Z,95447.9
2022-11-09T09:42:42.265Z,95454.3
2022-11-09T09:43:45.514Z,95455.5
2022-11-09T09:44:47.725Z,95458.2
2022-11-09T09:45:50.211Z,95461.4
2022-11-09T09:46:52.547Z,95460.1
2022-11-09T09:47:55.037Z,95461.6
2022-11-09T09:48:56.960Z,95459.3
2022-11-09T09:49:59.365Z,95453.8
2022-11-09T09:51:01.743Z,95454.7
2022-11-09T09:52:04.080Z,95454.8
2022-11-09T09:54:11.278Z,95456
2022-11-09T09:55:13.484Z,95457
2022-11-09T09:56:15.681Z,95452
2022-11-09T09:57:18.194Z,95454.4
2022-11-09T09:58:22.519Z,95451.8
2022-11-09T09:59:25.181Z,95452.6
2022-11-09T10:00:27.438Z,95451.6
2022-11-09T10:01:29.355Z,95456.7
2022-11-09T10:02:31.842Z,95454.8
2022-11-09T10:03:34.047Z,95453.6
2022-11-09T10:04:36.936Z,95455
2022-11-09T10:05:39.659Z,95454.1
2022-11-09T10:06:41.643Z,95450.4
2022-11-09T10:07:43.681Z,95456.5
2022-11-09T10:08:45.916Z,95450.1
2022-11-09T10:09:48.395Z,95455.6
2022-11-09T10:10:50.879Z,95457.5
2022-11-09T10:13:00.098Z,95461.3
2022-11-09T10:14:02.586Z,95455
2022-11-09T10:15:05.272Z,95459.7
2022-11-09T10:16:07.505Z,95454.2
2022-11-09T10:17:09.715Z,95457.1
2022-11-09T10:18:11.643Z,95453.1
2022-11-09T10:19:13.828Z,95454.8
2022-11-09T10:20:16.059Z,95449.2
2022-11-09T10:21:18.537Z,95448.4
2022-11-09T10:22:20.739Z,95449.7
2022-11-09T10:23:22.948Z,95450.3
2022-11-09T10:24:25.185Z,95442.2
2022-11-09T10:26:32.371Z,95439.7
2022-11-09T10:27:34.579Z,95437.9
2022-11-09T10:29:41.502Z,95442.8
2022-11-09T10:30:44.044Z,95443.1
2022-11-09T10:31:46.340Z,95440.2
2022-11-09T10:32:48.563Z,95435.5
2022-11-09T10:33:50.481Z,95439.7
2022-11-09T10:34:52.693Z,95438.8
2022-11-09T10:35:55.098Z,95431.7
2022-11-09T10:36:56.757Z,95435.1
2022-11-09T10:37:58.958Z,95431
2022-11-09T10:39:01.426Z,95430.9
2022-11-09T10:40:03.366Z,95430.5
2022-11-09T10:41:05.687Z,95432.1
2022-11-09T10:42:07.903Z,95425.3
2022-11-09T10:43:10.395Z,95428.1
2022-11-09T10:45:17.015Z,95421.5
2022-11-09T10:46:19.289Z,95422.7
2022-11-09T10:47:21.790Z,95418
2022-11-09T10:48:24.246Z,95416.4
2022-11-09T10:49:26.799Z,95419
2022-11-09T10:50:29.288Z,95417.6
2022-11-09T10:51:31.496Z,95413.6
2022-11-09T10:52:33.412Z,95414.4
2022-11-09T10:53:35.063Z,95412.6
2022-11-09T10:54:37.256Z,95410.5
2022-11-09T10:55:39.440Z,95412.6
2022-11-09T10:57:45.883Z,95404.6
2022-11-09T10:58:48.078Z,95403.8
2022-11-09T10:59:50.300Z,95404.4
2022-11-09T11:00:52.481Z,95403.5
2022-11-09T11:02:59.739Z,95407
2022-11-09T11:04:01.974Z,95404.9
2022-11-09T11:05:03.618Z,95405
2022-11-09T11:06:06.087Z,95403.4
2022-11-09T11:07:08.765Z,95405.4
2022-11-09T11:08:11.112Z,95401.8
2022-11-09T11:09:13.323Z,95399.1
2022-11-09T11:10:15.549Z,95402.8
2022-11-09T11:12:23.017Z,95394.7
2022-11-09T11:13:25.731Z,95393.3
2022-11-09T11:14:27.920Z,95391.9
2022-11-09T11:15:30.460Z,95387.7
2022-11-09T11:16:32.930Z,95380
2022-11-09T11:17:34.831Z,95376.7
2022-11-09T11:18:37.402Z,95375.6
2022-11-09T11:19:39.908Z,95380.7
2022-11-09T11:20:42.392Z,95381.5
2022-11-09T11:21:44.590Z,95377.7
2022-11-09T11:22:46.849Z,95380.8
2022-11-09T11:23:49.325Z,95383.9
2022-11-09T11:24:51.570Z,95385.7
2022-11-09T11:25:54.055Z,95382.6
2022-11-09T11:26:55.978Z,95384.6
2022-11-09T11:27:58.192Z,95375
2022-11-09T11:29:00.702Z,95372.1
2022-11-09T11:30:02.920Z,95375.5
2022-11-09T11:31:05.160Z,95363.6
2022-11-09T11:32:07.637Z,95373.2
2022-11-09T11:33:09.570Z,95376.1
2022-11-09T11:34:12.245Z,95372
2022-11-09T11:35:19.187Z,95378.4
2022-11-09T11:36:21.109Z,95382.1
2022-11-09T11:37:23.818Z,95381.7
2022-11-09T11:38:25.831Z,95383.7
2022-11-09T11:40:33.307Z,95377.3
2022-11-09T11:41:35.813Z,95380.7
2022-11-09T11:42:38.285Z,95378.9
2022-11-09T11:43:40.221Z,95383.2
2022-11-09T11:44:42.438Z,95375.3
2022-11-09T11:45:44.954Z,95385
2022-11-09T11:46:47.200Z,95386.1
2022-11-09T11:47:49.402Z,95381.8
2022-11-09T11:48:51.913Z,95383.7
2022-11-09T11:49:54.209Z,95378.8
2022-11-09T11:50:56.158Z,95376.4
2022-11-09T11:51:58.063Z,95384.9
2022-11-09T11:53:00.280Z,95377.6
2022-11-09T11:54:02.769Z,95370.8
2022-11-09T11:55:04.672Z,95373.3
2022-11-09T11:56:07.165Z,95374.8
2022-11-09T11:57:09.379Z,95370
2022-11-09T11:58:11.716Z,95366.9
2022-11-09T11:59:14.201Z,95370
2022-11-09T12:00:16.685Z,95365.3
2022-11-09T12:01:18.909Z,95363.7
2022-11-09T12:02:21.733Z,95365.6
2022-11-09T12:03:25.341Z,95366
2022-11-09T12:05:32.579Z,95358.6
2022-11-09T12:06:35.521Z,95361.1
2022-11-09T12:07:43.359Z,95360.3
2022-11-09T12:08:45.844Z,95362.7
2022-11-09T12:09:48.042Z,95367
2022-11-09T12:10:50.516Z,95365
2022-11-09T12:11:52.978Z,95365.3
2022-11-09T12:12:54.631Z,95361.9
2022-11-09T12:13:57.094Z,95358.3
2022-11-09T12:14:59.310Z,95359.5
2022-11-09T12:16:01.827Z,95358
2022-11-09T12:17:04.319Z,95355.6
2022-11-09T12:18:06.594Z,95357.4
2022-11-09T12:19:09.068Z,95359.1
2022-11-09T12:20:10.703Z,95360.1
2022-11-09T12:21:13.478Z,95358.5
2022-11-09T12:22:15.973Z,95349.5
2022-11-09T12:23:19.353Z,95348.3
2022-11-09T12:24:22.129Z,95347.4
2022-11-09T12:25:24.612Z,95344.9
2022-11-09T12:26:26.538Z,95341.4
2022-11-09T12:28:33.441Z,95344.3
2022-11-09T12:29:35.365Z,95343.8
2022-11-09T12:30:37.583Z,95341.9
2022-11-09T12:31:39.793Z,95345.2
2022-11-09T12:32:42.292Z,95344.4
2022-11-09T12:33:45.267Z,95347
2022-11-09T12:34:47.184Z,95343.3
2022-11-09T12:35:50.094Z,95344
2022-11-09T12:36:52.768Z,95346.5
2022-11-09T12:37:54.978Z,95344.3
2022-11-09T12:38:57.173Z,95347.1
2022-11-09T12:39:59.375Z,95339.6
2022-11-09T12:41:01.565Z,95340.6
2022-11-09T12:42:04.178Z,95339.1
2022-11-09T12:43:07.029Z,95337.3
2022-11-09T12:45:14.223Z,95336.2
2022-11-09T12:46:16.146Z,95332.6
2022-11-09T12:47:18.619Z,95332.8
2022-11-09T12:48:20.811Z,95329.5
2022-11-09T12:49:23.333Z,95329.5
2022-11-09T12:50:25.563Z,95328.6
2022-11-09T12:51:28.051Z,95324.5
2022-11-09T12:52:30.651Z,95328.2
2022-11-09T12:53:32.909Z,95326.5
2022-11-09T12:54:35.168Z,95329.3
2022-11-09T12:55:37.367Z,95328.1
2022-11-09T12:56:39.614Z,95326.6
2022-11-09T12:57:41.799Z,95327.7
2022-11-09T12:58:44.279Z,95328.3
2022-11-09T12:59:46.474Z,95327.3
2022-11-09T13:00:48.696Z,95328.7
2022-11-09T13:01:51.238Z,95329.4
2022-11-09T13:02:54.197Z,95328.9
2022-11-09T13:03:56.714Z,95327.3
2022-11-09T13:04:59.929Z,95328.6
2022-11-09T13:06:03.849Z,95326
2022-11-09T13:07:06.392Z,95329.2
2022-11-09T13:08:08.775Z,95325.5
2022-11-09T13:09:11.276Z,95324.9
2022-11-09T13:10:13.654Z,95320.5